Terminal Aerodrome Forecast
Issued by NWS

Home | Current Version | Previous Version | Text Only | Print | Product List | Glossary On
Versions: 1 2 3 4 5 6 7 8 9 10 11 12
022
FTUS45 KPIH 171722
TAFSUN
TAF
KSUN 171722Z 1718/1818 15008KT P6SM SKC
     FM180400 31006KT P6SM SCT110
     FM180900 VRB04KT P6SM SCT050 BKN110
     FM181700 15008KT P6SM VCSH BKN050 OVC090=

USA.gov is the U.S. government's official web portal to all federal, state and local government web resources and services.